Time;durP1;ratioP1;P1;durP2;ratioP2;P2;SDS_P1;SDS_P2;PMS_P1;PMS_P2;Temp;Humidity;BMP_temperature;BMP_pressure;BME280_temperature;BME280_humidity;BME280_pressure;Samples;Min_cycle;Max_cycle;Signal;HPM_P1;HPM_P2
2021/03/10 00:01:47;;;;;;;;;;;;;;;17.64;65.44;101259.38;5068165;28;1224;-65
2021/03/10 00:04:13;;;;;;;;;;;;;;;17.61;65.72;101267.41;5069365;28;1101;-65
2021/03/10 00:06:40;;;;;;;;;;;;;;;17.61;65.65;101258.63;5068381;28;1315;-65
2021/03/10 00:09:06;;;;;;;;;;;;;;;17.60;65.79;101263.03;5069098;28;1913;-66
2021/03/10 00:11:32;;;;;;;;;;;;;;;17.57;65.60;101268.44;5069553;28;1221;-64
2021/03/10 00:13:59;;;;;;;;;;;;;;;17.57;65.78;101262.34;5067333;28;1422;-66
2021/03/10 00:16:25;;;;;;;;;;;;;;;17.56;65.64;101260.63;5070417;28;1534;-65
2021/03/10 00:18:52;;;;;;;;;;;;;;;17.51;65.77;101254.69;5088870;28;789;-66
2021/03/10 00:21:18;;;;;;;;;;;;;;;17.51;65.67;101260.78;5085087;28;1266;-65
2021/03/10 00:23:44;;;;;;;;;;;;;;;17.52;65.52;101259.88;5067465;28;1267;-65
2021/03/10 00:26:11;;;;;;;;;;;;;;;17.50;65.53;101256.47;5069345;28;1365;-65
2021/03/10 00:28:37;;;;;;;;;;;;;;;17.49;65.60;101255.59;5068526;28;778;-65
2021/03/10 00:31:03;;;;;;;;;;;;;;;17.50;65.51;101261.72;5069690;28;1929;-65
2021/03/10 00:33:29;;;;;;;;;;;;;;;17.49;65.40;101260.00;5069536;28;1096;-65
2021/03/10 00:35:56;;;;;;;;;;;;;;;17.48;65.53;101256.50;5089406;28;1248;-65
2021/03/10 00:38:23;;;;;;;;;;;;;;;17.43;65.67;101252.38;5089039;28;914;-66
2021/03/10 00:40:49;;;;;;;;;;;;;;;17.46;65.59;101265.41;5089140;28;1338;-65
2021/03/10 00:43:15;;;;;;;;;;;;;;;17.45;65.41;101261.91;5088905;28;1184;-66
2021/03/10 00:45:42;;;;;;;;;;;;;;;17.45;65.68;101263.69;5088818;28;1301;-65
2021/03/10 00:48:08;;;;;;;;;;;;;;;17.44;65.42;101267.25;5088863;28;1539;-65
2021/03/10 00:50:35;;;;;;;;;;;;;;;17.44;65.14;101267.25;5086367;28;1988;-65
2021/03/10 00:53:01;;;;;;;;;;;;;;;17.43;65.39;101266.41;5088748;28;750;-66
2021/03/10 00:55:27;;;;;;;;;;;;;;;17.43;65.48;101265.53;5087474;28;1448;-66
2021/03/10 00:57:53;;;;;;;;;;;;;;;17.44;65.30;101267.25;5088886;28;1051;-65
2021/03/10 01:00:20;;;;;;;;;;;;;;;17.43;65.49;101261.13;5087716;28;1482;-65
2021/03/10 01:02:46;;;;;;;;;;;;;;;17.43;65.26;101260.28;5087445;28;904;-65
2021/03/10 01:05:13;;;;;;;;;;;;;;;17.42;65.34;101263.81;5087387;28;1275;-65
2021/03/10 01:07:39;;;;;;;;;;;;;;;17.42;65.31;101262.03;5087281;28;1236;-66
2021/03/10 01:10:08;;;;;;;;;;;;;;;17.42;65.25;101255.91;5087139;28;2019;-66
2021/03/10 01:12:34;;;;;;;;;;;;;;;17.43;65.32;101258.50;5088643;28;778;-66
2021/03/10 01:15:00;;;;;;;;;;;;;;;17.43;65.33;101260.28;5087266;28;1295;-66
2021/03/10 01:17:26;;;;;;;;;;;;;;;17.41;65.19;101251.59;5087492;28;1291;-66
2021/03/10 01:19:53;;;;;;;;;;;;;;;17.39;65.30;101253.41;5086444;28;1034;-66
2021/03/10 01:22:19;;;;;;;;;;;;;;;17.38;65.29;101252.59;5087061;28;1260;-65
2021/03/10 01:24:45;;;;;;;;;;;;;;;17.39;65.17;101253.41;5088816;28;1131;-66
2021/03/10 01:27:31;;;;;;;;;;;;;;;17.39;65.17;101253.41;5088918;28;1204;-66
2021/03/10 01:30:19;;;;;;;;;;;;;;;17.37;65.33;101255.28;5088388;28;1897;-66
2021/03/10 01:32:45;;;;;;;;;;;;;;;17.39;65.28;101261.31;5091186;28;762;-66
2021/03/10 01:35:12;;;;;;;;;;;;;;;17.39;65.52;101259.53;5090935;28;1328;-66
2021/03/10 01:37:38;;;;;;;;;;;;;;;17.38;65.65;101257.84;5092563;28;770;-66
2021/03/10 01:40:06;;;;;;;;;;;;;;;17.36;65.57;101256.19;5092541;28;1173;-66
2021/03/10 01:42:32;;;;;;;;;;;;;;;17.37;65.51;101257.91;5092255;28;804;-66
2021/03/10 01:44:58;;;;;;;;;;;;;;;17.36;65.57;101257.03;5092503;28;1064;-66
2021/03/10 01:47:24;;;;;;;;;;;;;;;17.35;65.30;101250.09;5091928;28;1476;-66
2021/03/10 01:49:51;;;;;;;;;;;;;;;17.34;65.46;101253.63;5092344;28;1906;-67
2021/03/10 01:52:17;;;;;;;;;;;;;;;17.34;65.15;101245.72;5092118;28;1224;-66
2021/03/10 01:54:43;;;;;;;;;;;;;;;17.33;65.34;101251.03;5073793;28;1151;-66
2021/03/10 01:57:09;;;;;;;;;;;;;;;17.32;65.36;101239.69;5090679;28;1343;-66
2021/03/10 01:59:36;;;;;;;;;;;;;;;17.32;65.34;101246.72;5091962;28;1045;-66
2021/03/10 02:02:02;;;;;;;;;;;;;;;17.33;65.23;101245.78;5091903;28;1327;-66
2021/03/10 02:04:28;;;;;;;;;;;;;;;17.32;65.61;101242.31;5090726;28;1035;-65
2021/03/10 02:07:03;;;;;;;;;;;;;;;17.32;65.46;101238.81;5090531;28;1240;-66
2021/03/10 02:09:32;;;;;;;;;;;;;;;17.31;65.35;101239.72;5092172;28;1906;-66
2021/03/10 02:12:18;;;;;;;;;;;;;;;17.31;65.46;101239.72;5090287;28;1350;-65
2021/03/10 02:15:07;;;;;;;;;;;;;;;17.26;65.54;101220.66;5090215;28;1222;-65
2021/03/10 02:17:37;;;;;;;;;;;;;;;17.29;65.60;101223.16;5091453;28;912;-65
2021/03/10 02:20:06;;;;;;;;;;;;;;;17.29;65.18;101215.25;5092020;28;1049;-65
2021/03/10 02:22:32;;;;;;;;;;;;;;;17.24;65.11;101202.28;5090330;28;1296;-65
2021/03/10 02:25:01;;;;;;;;;;;;;;;17.28;65.02;101213.53;5090323;28;1191;-65
2021/03/10 02:27:49;;;;;;;;;;;;;;;17.29;64.85;101210.00;5089994;28;1403;-65
2021/03/10 02:30:51;;;;;;;;;;;;;;;17.27;64.90;101211.81;5091237;28;1910;-65
2021/03/10 02:33:22;;;;;;;;;;;;;;;17.26;64.99;101210.13;5048642;28;775;-65
2021/03/10 02:35:50;;;;;;;;;;;;;;;17.24;65.29;101211.94;5080022;28;1264;-66
2021/03/10 02:38:21;;;;;;;;;;;;;;;17.26;65.08;101212.75;5073407;28;1647;-65
2021/03/10 02:40:48;;;;;;;;;;;;;;;17.24;65.22;101214.56;5089644;28;1413;-65
2021/03/10 02:43:14;;;;;;;;;;;;;;;17.26;65.10;101215.38;5089360;28;1310;-65
2021/03/10 02:45:42;;;;;;;;;;;;;;;17.24;65.35;101222.47;5089603;28;1734;-65
2021/03/10 02:48:09;;;;;;;;;;;;;;;17.25;65.27;101224.19;5090998;28;1571;-65
2021/03/10 02:50:35;;;;;;;;;;;;;;;17.23;65.40;101220.78;5089483;28;1976;-65
2021/03/10 02:53:04;;;;;;;;;;;;;;;17.24;65.51;101223.34;5090825;28;936;-65
2021/03/10 02:55:31;;;;;;;;;;;;;;;17.23;65.26;101218.16;5091079;28;1283;-65
2021/03/10 02:57:58;;;;;;;;;;;;;;;17.22;65.25;101224.34;5089383;28;1299;-66
2021/03/10 03:00:25;;;;;;;;;;;;;;;17.21;65.22;101217.34;5090875;28;1259;-65
2021/03/10 03:02:51;;;;;;;;;;;;;;;17.22;65.19;101224.34;5089385;28;1321;-65
2021/03/10 03:05:18;;;;;;;;;;;;;;;17.21;64.98;101217.34;5090886;28;1295;-65
2021/03/10 03:07:44;;;;;;;;;;;;;;;17.21;65.32;101218.19;5090701;28;1103;-66
2021/03/10 03:10:14;;;;;;;;;;;;;;;17.22;65.19;101219.06;5090640;28;1929;-65
2021/03/10 03:12:41;;;;;;;;;;;;;;;17.20;64.99;101223.56;5090569;28;1055;-65
2021/03/10 03:15:08;;;;;;;;;;;;;;;17.19;64.95;101213.94;5090649;28;1307;-65
2021/03/10 03:17:34;;;;;;;;;;;;;;;17.18;65.04;101223.59;5090698;28;805;-66
2021/03/10 03:20:03;;;;;;;;;;;;;;;17.19;65.24;101232.38;5089181;28;1222;-66
2021/03/10 03:22:30;;;;;;;;;;;;;;;17.19;65.34;101240.25;5090359;28;1283;-65
2021/03/10 03:24:56;;;;;;;;;;;;;;;17.18;65.27;101236.75;5090603;28;1080;-65
2021/03/10 03:27:26;;;;;;;;;;;;;;;17.19;65.24;101237.63;5089235;28;1213;-66
2021/03/10 03:29:57;;;;;;;;;;;;;;;17.19;65.05;101240.25;5090634;28;1902;-65
2021/03/10 03:32:25;;;;;;;;;;;;;;;17.17;65.24;101234.22;5090646;28;1296;-65
2021/03/10 03:34:51;;;;;;;;;;;;;;;17.15;65.12;101229.00;5090791;28;1023;-65
2021/03/10 03:37:36;;;;;;;;;;;;;;;17.15;65.02;101223.72;5089143;28;865;-65
2021/03/10 03:40:06;;;;;;;;;;;;;;;17.16;65.16;101216.69;5089033;28;1039;-65
2021/03/10 03:42:32;;;;;;;;;;;;;;;17.16;65.02;101221.97;5090081;28;789;-66
2021/03/10 03:44:58;;;;;;;;;;;;;;;17.15;65.11;101220.25;5090255;28;1231;-65
2021/03/10 03:47:24;;;;;;;;;;;;;;;17.17;65.10;101221.06;5088415;28;1593;-66
2021/03/10 03:49:51;;;;;;;;;;;;;;;17.14;65.24;101222.03;5090279;28;1926;-66
2021/03/10 03:52:17;;;;;;;;;;;;;;;17.15;65.03;101225.50;5089734;28;1231;-66
2021/03/10 03:54:43;;;;;;;;;;;;;;;17.15;64.98;101228.13;5089233;28;1191;-65
2021/03/10 03:57:10;;;;;;;;;;;;;;;17.14;65.02;101234.34;5088174;28;1240;-66
2021/03/10 03:59:36;;;;;;;;;;;;;;;17.13;65.13;101230.00;5088148;28;1142;-66
2021/03/10 04:02:02;;;;;;;;;;;;;;;17.14;65.05;101229.09;5089758;28;1228;-65
2021/03/10 04:04:29;;;;;;;;;;;;;;;17.12;65.14;101233.53;5089596;28;917;-65
2021/03/10 04:06:55;;;;;;;;;;;;;;;17.11;64.98;101231.84;5089536;28;1310;-65
2021/03/10 04:09:21;;;;;;;;;;;;;;;17.10;64.98;101244.16;5087961;28;1906;-65
2021/03/10 04:11:48;;;;;;;;;;;;;;;17.12;65.00;101244.06;5089412;28;1326;-66
2021/03/10 04:14:16;;;;;;;;;;;;;;;17.10;65.17;101251.19;5089543;28;1157;-65
2021/03/10 04:16:42;;;;;;;;;;;;;;;17.11;64.89;101260.81;5089342;28;1287;-65
2021/03/10 04:19:09;;;;;;;;;;;;;;;17.09;64.80;101262.63;5089743;28;924;-66
2021/03/10 04:21:36;;;;;;;;;;;;;;;17.10;64.62;101269.59;5089049;28;1306;-65
2021/03/10 04:24:02;;;;;;;;;;;;;;;17.08;64.83;101258.28;5087299;28;1150;-65
2021/03/10 04:26:29;;;;;;;;;;;;;;;17.07;64.68;101262.69;5087559;28;1370;-65
2021/03/10 04:28:55;;;;;;;;;;;;;;;17.07;65.04;101260.06;5089097;28;853;-66
2021/03/10 04:31:21;;;;;;;;;;;;;;;17.06;64.92;101260.13;5089534;28;1913;-65
2021/03/10 04:33:48;;;;;;;;;;;;;;;17.07;64.75;101269.72;5089386;28;820;-65
2021/03/10 04:36:14;;;;;;;;;;;;;;;17.08;64.80;101269.69;5087674;28;1288;-65
2021/03/10 04:38:42;;;;;;;;;;;;;;;17.07;64.86;101267.09;5089029;28;1249;-65
2021/03/10 04:41:09;;;;;;;;;;;;;;;17.07;64.93;101267.09;5087730;28;1285;-65
2021/03/10 04:43:35;;;;;;;;;;;;;;;17.07;64.78;101267.09;5087818;28;799;-66
2021/03/10 04:46:01;;;;;;;;;;;;;;;17.09;64.84;101260.00;5089426;28;1342;-65
2021/03/10 04:48:28;;;;;;;;;;;;;;;17.06;64.52;101268.00;5089060;28;1466;-64
2021/03/10 04:50:54;;;;;;;;;;;;;;;17.06;64.76;101271.50;5089250;28;1906;-65
2021/03/10 04:53:20;;;;;;;;;;;;;;;17.02;64.84;101275.22;5088915;28;750;-66
2021/03/10 04:55:46;;;;;;;;;;;;;;;17.06;64.74;101284.66;5087683;28;1398;-67
2021/03/10 04:58:13;;;;;;;;;;;;;;;17.05;64.92;101282.13;5089452;28;1133;-65
2021/03/10 05:00:40;;;;;;;;;;;;;;;17.03;64.95;101279.53;5070714;28;1344;-66
2021/03/10 05:03:06;;;;;;;;;;;;;;;17.06;64.82;101286.44;5087233;28;777;-65
2021/03/10 05:05:32;;;;;;;;;;;;;;;17.06;64.73;101296.97;5091347;28;1267;-65
2021/03/10 05:07:58;;;;;;;;;;;;;;;17.08;64.46;101303.03;5092917;28;1142;-66
2021/03/10 05:10:25;;;;;;;;;;;;;;;17.01;64.75;101291.03;5091527;28;1980;-65
2021/03/10 05:12:51;;;;;;;;;;;;;;;17.02;64.83;101287.50;5093149;28;1102;-65
2021/03/10 05:15:17;;;;;;;;;;;;;;;17.02;64.85;101284.88;5092903;28;1275;-65
2021/03/10 05:17:43;;;;;;;;;;;;;;;17.01;64.89;101296.31;5092919;28;840;-65
2021/03/10 05:20:11;;;;;;;;;;;;;;;17.02;64.88;101300.66;5084095;28;1600;-66
2021/03/10 05:22:38;;;;;;;;;;;;;;;17.00;64.82;101305.09;5088170;28;765;-64
2021/03/10 05:25:05;;;;;;;;;;;;;;;17.00;64.52;101305.09;5076308;28;1118;-65
2021/03/10 05:27:32;;;;;;;;;;;;;;;16.99;65.10;101306.06;5071347;28;793;-65
2021/03/10 05:30:02;;;;;;;;;;;;;;;16.97;64.78;101307.88;5072742;28;1906;-66
2021/03/10 05:32:29;;;;;;;;;;;;;;;16.98;64.59;101320.13;5079706;28;1354;-66
2021/03/10 05:34:55;;;;;;;;;;;;;;;16.99;64.84;101319.22;5092970;28;1131;-66
2021/03/10 05:37:22;;;;;;;;;;;;;;;16.97;64.65;101324.53;5091316;28;1307;-66
2021/03/10 05:39:48;;;;;;;;;;;;;;;16.96;64.41;101333.34;5077880;28;956;-66
2021/03/10 05:42:16;;;;;;;;;;;;;;;16.96;64.45;101348.28;5072399;28;1310;-66
2021/03/10 05:44:42;;;;;;;;;;;;;;;16.93;64.41;101350.09;5071937;28;1416;-67
2021/03/10 05:47:08;;;;;;;;;;;;;;;16.98;64.98;101347.31;5072032;28;1213;-68
2021/03/10 05:49:35;;;;;;;;;;;;;;;17.15;65.11;101349.22;5070348;28;1902;-66
2021/03/10 05:52:03;;;;;;;;;;;;;;;17.12;65.11;101344.09;5078758;28;1549;-66
2021/03/10 05:54:31;;;;;;;;;;;;;;;17.11;64.91;101348.53;5075097;28;929;-67
2021/03/10 05:56:58;;;;;;;;;;;;;;;17.10;64.62;101348.56;5070282;28;1169;-67
2021/03/10 05:59:27;;;;;;;;;;;;;;;17.09;64.48;101357.38;5071358;28;1054;-66
2021/03/10 06:01:54;;;;;;;;;;;;;;;17.07;64.65;101346.94;5070916;28;1414;-65
2021/03/10 06:04:20;;;;;;;;;;;;;;;17.12;64.78;101349.34;5070662;28;1134;-67
2021/03/10 06:06:46;;;;;;;;;;;;;;;17.11;64.72;101347.66;5069185;28;1311;-68
2021/03/10 06:09:33;;;;;;;;;;;;;;;17.10;64.75;101357.34;5070570;28;1914;-66
2021/03/10 06:12:01;;;;;;;;;;;;;;;17.07;64.84;101359.22;5069511;28;1248;-65
2021/03/10 06:14:28;;;;;;;;;;;;;;;17.01;64.77;101357.72;5069197;28;1044;-66
2021/03/10 06:17:03;;;;;;;;;;;;;;;17.01;64.76;101362.97;5070158;28;1325;-67
2021/03/10 06:19:40;;;;;;;;;;;;;;;17.05;64.72;101363.72;5070775;28;889;-69
2021/03/10 06:22:07;;;;;;;;;;;;;;;17.02;64.94;101361.19;5069180;28;1379;-66
2021/03/10 06:24:34;;;;;;;;;;;;;;;17.04;64.72;101362.84;5069086;28;1010;-66
2021/03/10 06:27:00;;;;;;;;;;;;;;;17.04;65.06;101368.13;5069030;28;1246;-68
2021/03/10 06:29:27;;;;;;;;;;;;;;;17.05;64.98;101375.09;5068862;28;1428;-70
2021/03/10 06:32:07;;;;;;;;;;;;;;;17.05;64.90;101374.25;5052894;28;1989;-69
2021/03/10 06:34:43;;;;;;;;;;;;;;;17.05;64.62;101374.25;5069695;28;1041;-69
2021/03/10 06:37:10;;;;;;;;;;;;;;;17.01;64.76;101375.28;5069962;28;1225;-68
2021/03/10 06:40:08;;;;;;;;;;;;;;;17.01;64.71;101380.53;5069963;28;1150;-68
2021/03/10 06:42:35;;;;;;;;;;;;;;;17.04;65.35;101383.91;5070923;28;825;-70
2021/03/10 06:45:01;;;;;;;;;;;;;;;17.01;64.75;101381.41;5069488;28;1142;-68
2021/03/10 06:47:40;;;;;;;;;;;;;;;17.06;65.10;101387.31;5070429;28;1484;-70
2021/03/10 06:50:15;;;;;;;;;;;;;;;17.00;64.74;101382.31;5070693;28;1910;-68
2021/03/10 06:52:50;;;;;;;;;;;;;;;17.13;65.50;101401.09;5070617;28;794;-66
2021/03/10 06:55:17;;;;;;;;;;;;;;;17.05;64.87;101405.81;5070619;28;1384;-68
2021/03/10 06:57:46;;;;;;;;;;;;;;;17.10;66.25;101403.84;5069097;28;1312;-66
2021/03/10 07:00:23;;;;;;;;;;;;;;;17.01;64.88;101401.59;5071048;28;1370;-69
2021/03/10 07:02:49;;;;;;;;;;;;;;;17.13;64.52;101401.97;5069446;28;829;-69
2021/03/10 07:05:17;;;;;;;;;;;;;;;17.05;64.76;101397.94;5069296;28;1394;-69
2021/03/10 07:07:43;;;;;;;;;;;;;;;17.05;64.83;101409.31;5070613;28;1122;-69
2021/03/10 07:10:19;;;;;;;;;;;;;;;16.99;65.34;101411.31;5072981;28;1981;-67
2021/03/10 07:12:59;;;;;;;;;;;;;;;16.98;65.49;101414.88;5071456;28;1197;-68
2021/03/10 07:15:30;;;;;;;;;;;;;;;16.95;65.43;101413.22;5056311;28;2217;-67
2021/03/10 07:18:03;;;;;;;;;;;;;;;16.95;65.73;101421.13;5073640;28;967;-67
2021/03/10 07:21:00;;;;;;;;;;;;;;;16.93;65.75;101413.25;5057299;28;1352;-68
2021/03/10 07:23:54;;;;;;;;;;;;;;;16.92;65.56;101419.47;5056738;28;1336;-65
2021/03/10 07:26:24;;;;;;;;;;;;;;;16.92;65.51;101419.47;5072128;28;1268;-66
2021/03/10 07:29:02;;;;;;;;;;;;;;;17.02;65.49;101419.09;5070851;28;828;-68
2021/03/10 07:31:30;;;;;;;;;;;;;;;17.08;65.95;101432.03;5055144;28;1953;-67
2021/03/10 07:33:57;;;;;;;;;;;;;;;17.15;66.42;101431.72;5070152;28;857;-68
2021/03/10 07:36:34;;;;;;;;;;;;;;;17.08;65.34;101440.78;5072192;28;1276;-68
2021/03/10 07:39:01;;;;;;;;;;;;;;;16.99;65.17;101435.88;5069968;28;1103;-68
2021/03/10 07:41:32;;;;;;;;;;;;;;;16.98;64.97;101431.53;5076690;28;1370;-68
2021/03/10 07:43:58;;;;;;;;;;;;;;;17.10;64.83;101444.19;5089941;28;728;-68
2021/03/10 07:46:28;;;;;;;;;;;;;;;17.31;66.12;101439.84;5089956;28;1245;-67
2021/03/10 07:48:55;;;;;;;;;;;;;;;17.29;64.14;101452.25;5089484;28;1194;-66
2021/03/10 07:51:22;;;;;;;;;;;;;;;17.26;64.03;101455.84;5089846;28;1965;-69
2021/03/10 07:53:48;;;;;;;;;;;;;;;17.43;64.88;101455.16;5090182;28;734;-74
2021/03/10 07:56:31;;;;;;;;;;;;;;;17.39;63.81;101475.50;5090595;28;1272;-73
2021/03/10 07:59:10;;;;;;;;;;;;;;;17.35;63.35;101475.69;5089993;28;809;-72
2021/03/10 08:01:36;;;;;;;;;;;;;;;17.31;63.16;101468.81;5096037;28;1236;-69
2021/03/10 08:04:14;;;;;;;;;;;;;;;17.39;64.58;101486.03;5100777;28;1414;-70
2021/03/10 08:06:44;;;;;;;;;;;;;;;17.40;63.32;101494.78;5093145;28;1735;-68
2021/03/10 08:09:11;;;;;;;;;;;;;;;17.37;62.68;101500.19;5091250;28;1275;-66
2021/03/10 08:11:42;;;;;;;;;;;;;;;17.35;62.67;101496.75;5097271;28;1992;-67
2021/03/10 08:14:09;;;;;;;;;;;;;;;17.35;62.74;101507.31;5090424;28;1125;-67
2021/03/10 08:17:01;;;;;;;;;;;;;;;17.35;62.19;101495.00;5107983;28;1219;-70
2021/03/10 08:19:29;;;;;;;;;;;;;;;17.35;62.29;101507.31;5107015;28;1188;-67
2021/03/10 08:21:56;;;;;;;;;;;;;;;17.35;62.18;101496.75;5107735;28;1239;-68
2021/03/10 08:24:26;;;;;;;;;;;;;;;17.37;61.91;101502.81;5092288;28;1147;-69
2021/03/10 08:26:54;;;;;;;;;;;;;;;17.42;64.20;101511.38;5068539;28;1448;-69
2021/03/10 08:29:21;;;;;;;;;;;;;;;17.44;63.76;101512.22;5069559;28;1507;-67
2021/03/10 08:31:49;;;;;;;;;;;;;;;17.39;62.72;101507.09;5087844;28;1914;-67
2021/03/10 08:34:16;;;;;;;;;;;;;;;17.43;63.20;101516.59;5087866;28;1210;-72
2021/03/10 08:36:42;;;;;;;;;;;;;;;17.41;61.78;101517.59;5094698;28;1314;-74
2021/03/10 08:39:10;;;;;;;;;;;;;;;17.38;61.68;101510.69;5105925;28;1778;-74
2021/03/10 08:41:44;;;;;;;;;;;;;;;17.39;61.57;101509.72;5077802;28;1317;-72
2021/03/10 08:44:10;;;;;;;;;;;;;;;17.38;61.69;101525.63;5070159;28;1616;-74
2021/03/10 08:46:41;;;;;;;;;;;;;;;17.41;61.70;101529.00;5086374;28;1220;-73
2021/03/10 08:49:17;;;;;;;;;;;;;;;17.40;61.17;101529.91;5086904;28;1287;-71
2021/03/10 08:51:44;;;;;;;;;;;;;;;17.43;61.17;101528.91;5084831;28;1905;-71
2021/03/10 08:54:10;;;;;;;;;;;;;;;17.47;61.43;101520.00;5068454;28;1075;-71
2021/03/10 08:56:52;;;;;;;;;;;;;;;17.46;61.47;101518.25;5076163;28;1372;-71
2021/03/10 08:59:20;;;;;;;;;;;;;;;17.47;62.33;101514.72;5104552;28;1055;-71
2021/03/10 09:01:47;;;;;;;;;;;;;;;17.47;62.67;101514.72;5107637;28;1282;-71
2021/03/10 09:04:21;;;;;;;;;;;;;;;17.47;62.51;101520.00;5105712;28;1257;-71
2021/03/10 09:06:50;;;;;;;;;;;;;;;17.48;62.08;101511.13;5096854;28;1307;-71
2021/03/10 09:09:17;;;;;;;;;;;;;;;17.51;62.57;101520.72;5087085;28;1147;-73
2021/03/10 09:11:51;;;;;;;;;;;;;;;17.62;65.46;101534.34;5087743;28;1961;-73
2021/03/10 09:14:17;;;;;;;;;;;;;;;17.58;63.63;101533.63;5088229;28;1215;-70
2021/03/10 09:16:51;;;;;;;;;;;;;;;17.59;64.30;101532.69;5082078;28;1419;-71
2021/03/10 09:19:27;;;;;;;;;;;;;;;17.63;64.80;101543.97;5085654;28;1536;-65
2021/03/10 09:22:04;;;;;;;;;;;;;;;17.62;64.33;101545.75;5095791;28;1287;-65
2021/03/10 09:24:31;;;;;;;;;;;;;;;17.58;63.04;101538.88;5107612;28;1091;-68
2021/03/10 09:26:58;;;;;;;;;;;;;;;17.58;63.33;101544.16;5100080;28;1341;-66
2021/03/10 09:29:24;;;;;;;;;;;;;;;17.61;64.42;101538.75;5075422;28;1583;-67
2021/03/10 09:31:57;;;;;;;;;;;;;;;17.61;64.08;101549.28;5086803;28;2052;-66
2021/03/10 09:34:24;;;;;;;;;;;;;;;17.59;65.08;101551.16;5097162;28;1108;-69
2021/03/10 09:36:52;;;;;;;;;;;;;;;17.60;65.02;101547.56;5096600;28;1580;-67
2021/03/10 09:39:18;;;;;;;;;;;;;;;17.58;64.80;101556.47;5107239;28;948;-66
2021/03/10 09:41:48;;;;;;;;;;;;;;;17.56;65.09;101556.53;5105450;28;1247;-66
2021/03/10 09:44:14;;;;;;;;;;;;;;;17.56;65.19;101553.91;5097761;28;1539;-67
2021/03/10 09:46:47;;;;;;;;;;;;;;;17.55;65.42;101562.72;5085731;28;1491;-65
2021/03/10 09:49:13;;;;;;;;;;;;;;;17.54;65.49;101560.13;5092319;28;1445;-66
2021/03/10 09:51:47;;;;;;;;;;;;;;;17.54;65.66;101555.69;5066385;28;1906;-67
2021/03/10 09:54:14;;;;;;;;;;;;;;;17.55;65.61;101556.56;5110974;28;1066;-66
2021/03/10 09:56:50;;;;;;;;;;;;;;;17.54;65.92;101555.69;5110294;28;1231;-65
2021/03/10 09:59:16;;;;;;;;;;;;;;;17.53;66.04;101546.09;5110385;28;1168;-66
2021/03/10 10:01:44;;;;;;;;;;;;;;;17.53;64.96;101551.34;5107555;28;1560;-67
2021/03/10 10:04:11;;;;;;;;;;;;;;;17.56;64.12;101561.81;5111243;28;916;-65
2021/03/10 10:06:47;;;;;;;;;;;;;;;17.57;63.61;101563.50;5100858;28;1362;-67
2021/03/10 10:09:13;;;;;;;;;;;;;;;17.60;63.21;101558.09;5090319;28;1004;-68
2021/03/10 10:11:40;;;;;;;;;;;;;;;17.58;62.77;101557.31;5089697;28;1913;-67
2021/03/10 10:14:06;;;;;;;;;;;;;;;17.60;63.11;101550.19;5096528;28;1172;-67
2021/03/10 10:16:35;;;;;;;;;;;;;;;17.54;63.12;101552.22;5093901;28;1591;-68
2021/03/10 10:19:04;;;;;;;;;;;;;;;17.59;62.72;101556.41;5081072;28;781;-68
2021/03/10 10:21:30;;;;;;;;;;;;;;;17.60;62.31;101555.47;5088199;28;1286;-69
2021/03/10 10:23:59;;;;;;;;;;;;;;;17.62;62.22;101560.69;5108625;28;1294;-67
2021/03/10 10:26:25;;;;;;;;;;;;;;;17.69;65.44;101567.44;5098330;28;1406;-66
2021/03/10 10:28:52;;;;;;;;;;;;;;;17.66;63.52;101562.31;5082622;28;983;-68
2021/03/10 10:31:28;;;;;;;;;;;;;;;17.64;63.02;101564.97;5081476;28;1981;-69
2021/03/10 10:33:55;;;;;;;;;;;;;;;17.63;62.93;101560.63;5108890;28;1329;-68
2021/03/10 10:36:22;;;;;;;;;;;;;;;17.63;62.79;101558.00;5082490;28;1559;-69
2021/03/10 10:38:48;;;;;;;;;;;;;;;17.64;62.73;101554.44;5108866;28;786;-67
2021/03/10 10:41:14;;;;;;;;;;;;;;;17.66;62.72;101555.22;5108906;28;1360;-68
2021/03/10 10:43:41;;;;;;;;;;;;;;;17.67;62.77;101548.19;5110180;28;852;-70
2021/03/10 10:46:07;;;;;;;;;;;;;;;17.65;62.56;101543.00;5109585;28;1381;-68
2021/03/10 10:48:34;;;;;;;;;;;;;;;17.66;62.67;101549.97;5109642;28;1390;-68
2021/03/10 10:51:00;;;;;;;;;;;;;;;17.69;63.64;101541.94;5110175;28;1983;-66
2021/03/10 10:53:27;;;;;;;;;;;;;;;17.76;65.98;101546.06;5109613;28;790;-65
2021/03/10 10:55:54;;;;;;;;;;;;;;;17.70;67.12;101553.34;5109272;28;1267;-65
2021/03/10 10:58:20;;;;;;;;;;;;;;;17.66;58.96;101541.22;5108784;28;801;-67
2021/03/10 11:01:07;;;;;;;;;;;;;;;17.68;58.37;101544.66;5109032;28;2032;-66
2021/03/10 11:03:33;;;;;;;;;;;;;;;17.67;60.86;101543.78;5108278;28;883;-66
2021/03/10 11:06:01;;;;;;;;;;;;;;;17.65;61.98;101542.13;5109417;28;1252;-66
2021/03/10 11:08:27;;;;;;;;;;;;;;;17.64;62.21;101540.41;5109705;28;837;-67
2021/03/10 11:10:54;;;;;;;;;;;;;;;17.63;62.10;101530.81;5110151;28;1982;-66
2021/03/10 11:13:37;;;;;;;;;;;;;;;17.63;61.49;101531.63;5110516;28;786;-66
2021/03/10 11:16:04;;;;;;;;;;;;;;;17.65;61.86;101537.72;5109997;28;1358;-67
2021/03/10 11:18:30;;;;;;;;;;;;;;;17.66;61.80;101535.97;5110287;28;1251;-67
2021/03/10 11:20:56;;;;;;;;;;;;;;;17.64;61.84;101536.00;5110442;28;1275;-67
2021/03/10 11:23:22;;;;;;;;;;;;;;;17.64;61.99;101533.38;5110329;28;833;-66
2021/03/10 11:25:49;;;;;;;;;;;;;;;17.64;62.06;101533.38;5107392;28;1279;-64
2021/03/10 11:28:16;;;;;;;;;;;;;;;17.64;61.79;101525.47;5088644;28;1381;-67
2021/03/10 11:30:42;;;;;;;;;;;;;;;17.65;61.92;101527.19;5090385;28;1909;-67
2021/03/10 11:33:08;;;;;;;;;;;;;;;17.66;62.34;101525.41;5088347;28;879;-67
2021/03/10 11:35:35;;;;;;;;;;;;;;;17.65;62.33;101528.97;5090141;28;1381;-67
2021/03/10 11:38:01;;;;;;;;;;;;;;;17.66;61.84;101523.63;5089682;28;1034;-67
2021/03/10 11:40:41;;;;;;;;;;;;;;;17.68;61.98;101519.16;5089649;28;1223;-66
2021/03/10 11:43:07;;;;;;;;;;;;;;;17.67;61.97;101513.94;5091239;28;1087;-67
2021/03/10 11:45:34;;;;;;;;;;;;;;;17.78;62.90;101514.38;5078887;28;1656;-69
2021/03/10 11:48:01;;;;;;;;;;;;;;;17.75;62.35;101510.06;5090240;28;1462;-69
2021/03/10 11:50:27;;;;;;;;;;;;;;;17.76;63.62;101519.69;5088183;28;1906;-66
2021/03/10 11:52:54;;;;;;;;;;;;;;;17.80;63.61;101521.28;5107673;28;1099;-65
2021/03/10 11:55:20;;;;;;;;;;;;;;;17.80;64.37;101512.53;5109536;28;1389;-69
2021/03/10 11:57:47;;;;;;;;;;;;;;;17.80;64.29;101523.06;5109430;28;1035;-69
2021/03/10 12:00:13;;;;;;;;;;;;;;;17.76;63.13;101517.06;5109596;28;1369;-69
2021/03/10 12:02:39;;;;;;;;;;;;;;;17.74;62.21;101512.78;5109600;28;1039;-67
2021/03/10 12:05:06;;;;;;;;;;;;;;;17.74;61.85;101503.09;5091568;28;1195;-67
2021/03/10 12:07:33;;;;;;;;;;;;;;;17.74;60.90;101496.97;5108722;28;1023;-69
2021/03/10 12:10:00;;;;;;;;;;;;;;;17.73;60.52;101501.38;5109930;28;967;-67
2021/03/10 12:12:27;;;;;;;;;;;;;;;17.75;59.72;101503.97;5107929;28;1902;-67
2021/03/10 12:14:54;;;;;;;;;;;;;;;17.74;58.95;101499.59;5108013;28;1172;-67
2021/03/10 12:17:21;;;;;;;;;;;;;;;17.74;60.10;101492.56;5109199;28;1318;-65
2021/03/10 12:19:48;;;;;;;;;;;;;;;17.73;57.50;101490.84;5107777;28;1906;-66
2021/03/10 12:22:14;;;;;;;;;;;;;;;17.72;55.97;101483.84;5102000;28;1300;-67
2021/03/10 12:24:44;;;;;;;;;;;;;;;17.49;56.27;101487.38;5076999;28;1134;-65
2021/03/10 12:27:11;;;;;;;;;;;;;;;17.65;55.96;101487.66;5083894;28;1375;-65
2021/03/10 12:29:37;;;;;;;;;;;;;;;17.72;57.37;101483.84;5088896;28;1035;-67
2021/03/10 12:32:05;;;;;;;;;;;;;;;17.71;57.27;101476.88;5088471;28;1898;-65
2021/03/10 12:34:32;;;;;;;;;;;;;;;17.70;55.07;101476.91;5088696;28;1037;-63
2021/03/10 12:36:58;;;;;;;;;;;;;;;17.75;57.00;101464.44;5097071;28;1319;-66
2021/03/10 12:39:27;;;;;;;;;;;;;;;17.79;57.61;101473.91;5088141;28;1111;-65
2021/03/10 12:41:53;;;;;;;;;;;;;;;17.71;57.76;101471.59;5095175;28;1693;-64
2021/03/10 12:44:24;;;;;;;;;;;;;;;17.68;57.30;101474.38;5088751;28;1153;-64
2021/03/10 12:46:51;;;;;;;;;;;;;;;17.67;56.69;101471.78;5097710;28;1317;-64
2021/03/10 12:49:18;;;;;;;;;;;;;;;17.70;55.53;101471.66;5085943;28;1536;-64
2021/03/10 12:51:44;;;;;;;;;;;;;;;17.71;58.57;101461.06;5092646;28;1965;-64
2021/03/10 12:54:10;;;;;;;;;;;;;;;17.68;58.26;101463.81;5087288;28;1891;-65
2021/03/10 12:56:37;;;;;;;;;;;;;;;17.64;58.20;101449.06;5087585;28;1294;-63